sensor_id;sensor_type;location;lat;lon;timestamp;pressure;altitude;pressure_sealevel;temperature;humidity
73600;BME280;61877;48.246;9.220;2022-08-21T00:01:10;94358.94;;;12.92;90.61
73600;BME280;61877;48.246;9.220;2022-08-21T00:03:39;94357.88;;;12.81;90.63
73600;BME280;61877;48.246;9.220;2022-08-21T00:06:05;94358.38;;;12.71;91.04
73600;BME280;61877;48.246;9.220;2022-08-21T00:08:30;94351.69;;;12.65;91.33
73600;BME280;61877;48.246;9.220;2022-08-21T00:10:56;94355.25;;;12.69;91.93
73600;BME280;61877;48.246;9.220;2022-08-21T00:13:22;94353.94;;;12.63;91.39
73600;BME280;61877;48.246;9.220;2022-08-21T00:15:48;94355.84;;;12.62;90.89
73600;BME280;61877;48.246;9.220;2022-08-21T00:18:14;94347.66;;;12.59;91.54
73600;BME280;61877;48.246;9.220;2022-08-21T00:20:42;94344.88;;;12.55;91.73
73600;BME280;61877;48.246;9.220;2022-08-21T00:23:08;94342.06;;;12.52;91.68
73600;BME280;61877;48.246;9.220;2022-08-21T00:25:33;94339.38;;;12.52;90.60
73600;BME280;61877;48.246;9.220;2022-08-21T00:27:59;94341.91;;;12.45;91.16
73600;BME280;61877;48.246;9.220;2022-08-21T00:30:26;94340.88;;;12.49;91.01
73600;BME280;61877;48.246;9.220;2022-08-21T00:32:53;94338.78;;;12.31;90.71
73600;BME280;61877;48.246;9.220;2022-08-21T00:35:23;94342.03;;;12.36;90.22
73600;BME280;61877;48.246;9.220;2022-08-21T00:37:50;94338.41;;;12.44;90.19
73600;BME280;61877;48.246;9.220;2022-08-21T00:40:21;94337.53;;;12.40;90.02
73600;BME280;61877;48.246;9.220;2022-08-21T00:42:47;94336.75;;;12.40;90.75
73600;BME280;61877;48.246;9.220;2022-08-21T00:45:12;94336.88;;;12.43;90.93
73600;BME280;61877;48.246;9.220;2022-08-21T00:47:38;94334.84;;;12.40;91.51
73600;BME280;61877;48.246;9.220;2022-08-21T00:50:06;94331.63;;;12.35;90.17
73600;BME280;61877;48.246;9.220;2022-08-21T00:52:34;94328.72;;;12.28;90.06
73600;BME280;61877;48.246;9.220;2022-08-21T00:55:04;94335.38;;;12.18;90.47
73600;BME280;61877;48.246;9.220;2022-08-21T00:57:36;94333.69;;;12.14;90.76
73600;BME280;61877;48.246;9.220;2022-08-21T01:00:06;94331.03;;;12.02;90.74
73600;BME280;61877;48.246;9.220;2022-08-21T01:02:32;94327.47;;;11.98;90.28
73600;BME280;61877;48.246;9.220;2022-08-21T01:04:58;94332.38;;;11.96;91.18
73600;BME280;61877;48.246;9.220;2022-08-21T01:07:23;94331.41;;;11.88;89.68
73600;BME280;61877;48.246;9.220;2022-08-21T01:09:49;94323.34;;;11.88;90.25
73600;BME280;61877;48.246;9.220;2022-08-21T01:12:16;94320.31;;;11.90;89.73
73600;BME280;61877;48.246;9.220;2022-08-21T01:14:42;94317.63;;;11.90;89.24
73600;BME280;61877;48.246;9.220;2022-08-21T01:17:09;94320.88;;;11.83;89.93
73600;BME280;61877;48.246;9.220;2022-08-21T01:19:35;94323.47;;;11.80;90.46
73600;BME280;61877;48.246;9.220;2022-08-21T01:22:02;94316.72;;;11.86;90.75
73600;BME280;61877;48.246;9.220;2022-08-21T01:24:28;94318.41;;;11.90;90.98
73600;BME280;61877;48.246;9.220;2022-08-21T01:26:54;94311.03;;;11.87;91.08
73600;BME280;61877;48.246;9.220;2022-08-21T01:29:27;94309.31;;;11.95;90.77
73600;BME280;61877;48.246;9.220;2022-08-21T01:31:54;94308.53;;;11.94;90.49
73600;BME280;61877;48.246;9.220;2022-08-21T01:34:19;94313.72;;;11.87;90.57
73600;BME280;61877;48.246;9.220;2022-08-21T01:36:46;94300.81;;;11.81;90.78
73600;BME280;61877;48.246;9.220;2022-08-21T01:39:13;94308.69;;;11.74;90.44
73600;BME280;61877;48.246;9.220;2022-08-21T01:41:38;94307.91;;;11.73;89.67
73600;BME280;61877;48.246;9.220;2022-08-21T01:44:04;94317.22;;;11.63;91.20
73600;BME280;61877;48.246;9.220;2022-08-21T01:46:30;94297.38;;;11.68;89.34
73600;BME280;61877;48.246;9.220;2022-08-21T01:48:56;94305.78;;;11.66;90.06
73600;BME280;61877;48.246;9.220;2022-08-21T01:51:21;94310.47;;;11.57;90.09
73600;BME280;61877;48.246;9.220;2022-08-21T01:53:47;94311.50;;;11.65;89.02
73600;BME280;61877;48.246;9.220;2022-08-21T01:56:16;94313.59;;;11.59;90.09
73600;BME280;61877;48.246;9.220;2022-08-21T01:58:44;94309.00;;;11.60;90.10
73600;BME280;61877;48.246;9.220;2022-08-21T02:01:10;94306.34;;;11.60;90.24
73600;BME280;61877;48.246;9.220;2022-08-21T02:03:36;94289.88;;;11.61;90.48
73600;BME280;61877;48.246;9.220;2022-08-21T02:06:02;94295.91;;;11.58;90.34
73600;BME280;61877;48.246;9.220;2022-08-21T02:08:28;94293.47;;;11.53;90.71
73600;BME280;61877;48.246;9.220;2022-08-21T02:10:53;94292.56;;;11.49;90.64
73600;BME280;61877;48.246;9.220;2022-08-21T02:13:20;94290.22;;;11.60;91.71
73600;BME280;61877;48.246;9.220;2022-08-21T02:15:46;94293.47;;;11.65;91.33
73600;BME280;61877;48.246;9.220;2022-08-21T02:18:11;94287.84;;;11.58;90.82
73600;BME280;61877;48.246;9.220;2022-08-21T02:20:39;94281.59;;;11.54;90.62
73600;BME280;61877;48.246;9.220;2022-08-21T02:23:06;94284.28;;;11.42;91.28
73600;BME280;61877;48.246;9.220;2022-08-21T02:25:32;94281.72;;;11.34;90.33
73600;BME280;61877;48.246;9.220;2022-08-21T02:27:59;94283.84;;;11.40;91.70
73600;BME280;61877;48.246;9.220;2022-08-21T02:30:31;94283.84;;;11.40;89.94
73600;BME280;61877;48.246;9.220;2022-08-21T02:32:57;94281.16;;;11.40;90.60
73600;BME280;61877;48.246;9.220;2022-08-21T02:35:23;94288.31;;;11.48;91.32
73600;BME280;61877;48.246;9.220;2022-08-21T02:37:50;94285.63;;;11.48;90.60
73600;BME280;61877;48.246;9.220;2022-08-21T02:40:18;94280.38;;;11.52;90.43
73600;BME280;61877;48.246;9.220;2022-08-21T02:42:44;94267.41;;;11.42;90.28
73600;BME280;61877;48.246;9.220;2022-08-21T02:45:10;94277.56;;;11.36;90.33
73600;BME280;61877;48.246;9.220;2022-08-21T02:47:37;94277.34;;;11.29;89.33
73600;BME280;61877;48.246;9.220;2022-08-21T02:50:03;94279.38;;;11.20;90.72
73600;BME280;61877;48.246;9.220;2022-08-21T02:52:29;94285.19;;;11.10;90.54
73600;BME280;61877;48.246;9.220;2022-08-21T02:54:54;94278.91;;;11.06;91.17
73600;BME280;61877;48.246;9.220;2022-08-21T02:57:19;94284.97;;;11.15;92.07
73600;BME280;61877;48.246;9.220;2022-08-21T02:59:45;94281.38;;;11.11;91.38
73600;BME280;61877;48.246;9.220;2022-08-21T03:02:10;94280.94;;;11.09;91.42
73600;BME280;61877;48.246;9.220;2022-08-21T03:04:37;94281.84;;;11.13;91.72
73600;BME280;61877;48.246;9.220;2022-08-21T03:07:03;94280.69;;;11.14;91.09
73600;BME280;61877;48.246;9.220;2022-08-21T03:09:28;94277.25;;;11.14;91.12
73600;BME280;61877;48.246;9.220;2022-08-21T03:11:54;94279.16;;;11.13;91.33
73600;BME280;61877;48.246;9.220;2022-08-21T03:14:19;94270.31;;;11.01;91.11
73600;BME280;61877;48.246;9.220;2022-08-21T03:16:45;94274.09;;;11.00;90.76
73600;BME280;61877;48.246;9.220;2022-08-21T03:19:10;94276.91;;;11.03;90.93
73600;BME280;61877;48.246;9.220;2022-08-21T03:21:37;94273.00;;;11.01;90.79
73600;BME280;61877;48.246;9.220;2022-08-21T03:24:03;94273.44;;;10.91;90.67
73600;BME280;61877;48.246;9.220;2022-08-21T03:26:28;94282.25;;;10.91;91.79
73600;BME280;61877;48.246;9.220;2022-08-21T03:28:54;94284.72;;;10.96;90.39
73600;BME280;61877;48.246;9.220;2022-08-21T03:31:19;94279.69;;;10.83;90.24
73600;BME280;61877;48.246;9.220;2022-08-21T03:33:44;94280.69;;;10.90;91.03
73600;BME280;61877;48.246;9.220;2022-08-21T03:36:12;94279.56;;;10.91;90.76
73600;BME280;61877;48.246;9.220;2022-08-21T03:38:39;94286.03;;;10.78;90.62
73600;BME280;61877;48.246;9.220;2022-08-21T03:41:05;94283.38;;;10.90;91.65
73600;BME280;61877;48.246;9.220;2022-08-21T03:43:31;94287.16;;;10.77;90.41
73600;BME280;61877;48.246;9.220;2022-08-21T03:45:57;94285.50;;;10.85;89.84
73600;BME280;61877;48.246;9.220;2022-08-21T03:48:23;94288.50;;;10.83;90.64
73600;BME280;61877;48.246;9.220;2022-08-21T03:50:52;94281.59;;;10.82;89.54
73600;BME280;61877;48.246;9.220;2022-08-21T03:53:17;94290.94;;;10.76;89.36
73600;BME280;61877;48.246;9.220;2022-08-21T03:55:45;94281.81;;;10.77;88.82
73600;BME280;61877;48.246;9.220;2022-08-21T03:58:11;94287.59;;;10.67;88.32
73600;BME280;61877;48.246;9.220;2022-08-21T04:00:36;94290.56;;;10.54;88.94
73600;BME280;61877;48.246;9.220;2022-08-21T04:03:01;94291.81;;;10.56;88.21
73600;BME280;61877;48.246;9.220;2022-08-21T04:05:27;94288.78;;;10.46;88.11
73600;BME280;61877;48.246;9.220;2022-08-21T04:07:54;94289.06;;;10.32;89.63
73600;BME280;61877;48.246;9.220;2022-08-21T04:10:20;94287.84;;;10.29;88.31
73600;BME280;61877;48.246;9.220;2022-08-21T04:12:46;94290.13;;;10.19;88.93
73600;BME280;61877;48.246;9.220;2022-08-21T04:15:12;94287.97;;;10.12;89.84
73600;BME280;61877;48.246;9.220;2022-08-21T04:17:37;94294.00;;;10.09;89.98
73600;BME280;61877;48.246;9.220;2022-08-21T04:20:03;94298.09;;;10.07;90.52
73600;BME280;61877;48.246;9.220;2022-08-21T04:22:29;94299.03;;;10.11;90.12
73600;BME280;61877;48.246;9.220;2022-08-21T04:24:54;94298.97;;;10.19;91.32
73600;BME280;61877;48.246;9.220;2022-08-21T04:27:20;94302.22;;;10.25;91.05
73600;BME280;61877;48.246;9.220;2022-08-21T04:29:47;94302.13;;;10.33;91.03
73600;BME280;61877;48.246;9.220;2022-08-21T04:32:12;94300.94;;;10.43;90.92
73600;BME280;61877;48.246;9.220;2022-08-21T04:34:37;94299.13;;;10.35;90.54
73600;BME280;61877;48.246;9.220;2022-08-21T04:37:03;94300.66;;;10.24;89.17
73600;BME280;61877;48.246;9.220;2022-08-21T04:39:28;94312.16;;;10.24;90.34
73600;BME280;61877;48.246;9.220;2022-08-21T04:41:54;94302.34;;;10.28;89.53
73600;BME280;61877;48.246;9.220;2022-08-21T04:44:19;94312.31;;;10.28;89.06
73600;BME280;61877;48.246;9.220;2022-08-21T04:46:46;94306.94;;;10.28;89.80
73600;BME280;61877;48.246;9.220;2022-08-21T04:49:11;94310.19;;;10.33;90.82
73600;BME280;61877;48.246;9.220;2022-08-21T04:51:37;94310.19;;;10.33;90.30
73600;BME280;61877;48.246;9.220;2022-08-21T04:54:07;94317.00;;;10.31;90.63
73600;BME280;61877;48.246;9.220;2022-08-21T04:56:37;94317.16;;;10.47;89.91
73600;BME280;61877;48.246;9.220;2022-08-21T04:59:07;94318.19;;;10.54;89.43
73600;BME280;61877;48.246;9.220;2022-08-21T05:01:37;94325.31;;;10.50;88.51
73600;BME280;61877;48.246;9.220;2022-08-21T05:04:05;94323.31;;;10.47;89.44
73600;BME280;61877;48.246;9.220;2022-08-21T05:06:35;94330.69;;;10.50;88.91
73600;BME280;61877;48.246;9.220;2022-08-21T05:09:04;94321.50;;;10.39;88.99
73600;BME280;61877;48.246;9.220;2022-08-21T05:11:29;94317.34;;;10.41;88.68
73600;BME280;61877;48.246;9.220;2022-08-21T05:13:55;94317.22;;;10.38;89.80
73600;BME280;61877;48.246;9.220;2022-08-21T05:16:21;94326.13;;;10.51;89.38
73600;BME280;61877;48.246;9.220;2022-08-21T05:18:46;94319.78;;;10.67;88.88
73600;BME280;61877;48.246;9.220;2022-08-21T05:21:13;94323.63;;;10.78;87.60
73600;BME280;61877;48.246;9.220;2022-08-21T05:23:38;94321.38;;;10.80;87.03
73600;BME280;61877;48.246;9.220;2022-08-21T05:26:04;94319.63;;;10.96;86.50
73600;BME280;61877;48.246;9.220;2022-08-21T05:28:29;94323.69;;;10.70;87.16
73600;BME280;61877;48.246;9.220;2022-08-21T05:30:55;94328.13;;;10.98;85.35
73600;BME280;61877;48.246;9.220;2022-08-21T05:33:20;94330.69;;;10.83;86.45
73600;BME280;61877;48.246;9.220;2022-08-21T05:35:49;94328.53;;;10.76;86.66
73600;BME280;61877;48.246;9.220;2022-08-21T05:38:16;94329.41;;;10.68;85.81
73600;BME280;61877;48.246;9.220;2022-08-21T05:40:42;94333.47;;;10.74;87.47
73600;BME280;61877;48.246;9.220;2022-08-21T05:43:07;94333.69;;;10.81;87.43
73600;BME280;61877;48.246;9.220;2022-08-21T05:45:33;94336.59;;;10.88;86.90
73600;BME280;61877;48.246;9.220;2022-08-21T05:48:05;94337.53;;;10.92;86.90
73600;BME280;61877;48.246;9.220;2022-08-21T05:50:30;94336.06;;;10.95;86.35
73600;BME280;61877;48.246;9.220;2022-08-21T05:52:56;94333.25;;;10.91;87.15
73600;BME280;61877;48.246;9.220;2022-08-21T05:55:23;94330.44;;;10.88;87.08
73600;BME280;61877;48.246;9.220;2022-08-21T05:57:48;94325.88;;;10.88;87.02
73600;BME280;61877;48.246;9.220;2022-08-21T06:00:15;94319.19;;;10.94;87.07
73600;BME280;61877;48.246;9.220;2022-08-21T06:02:40;94325.25;;;11.15;87.38
73600;BME280;61877;48.246;9.220;2022-08-21T06:05:07;94319.97;;;11.31;86.41
73600;BME280;61877;48.246;9.220;2022-08-21T06:07:32;94321.78;;;11.51;84.77
73600;BME280;61877;48.246;9.220;2022-08-21T06:09:58;94319.44;;;11.49;84.43
73600;BME280;61877;48.246;9.220;2022-08-21T06:12:25;94327.94;;;11.39;84.68
73600;BME280;61877;48.246;9.220;2022-08-21T06:14:50;94316.19;;;11.80;83.57
73600;BME280;61877;48.246;9.220;2022-08-21T06:17:16;94320.44;;;11.81;83.98
73600;BME280;61877;48.246;9.220;2022-08-21T06:19:41;94312.56;;;12.00;84.36
73600;BME280;61877;48.246;9.220;2022-08-21T06:22:06;94319.59;;;12.05;84.93
73600;BME280;61877;48.246;9.220;2022-08-21T06:24:32;94319.13;;;12.15;85.16
73600;BME280;61877;48.246;9.220;2022-08-21T06:27:04;94320.41;;;12.33;85.02
73600;BME280;61877;48.246;9.220;2022-08-21T06:29:34;94316.50;;;12.58;84.84
73600;BME280;61877;48.246;9.220;2022-08-21T06:32:01;94313.75;;;12.70;83.90
73600;BME280;61877;48.246;9.220;2022-08-21T06:34:26;94313.91;;;12.77;83.72
73600;BME280;61877;48.246;9.220;2022-08-21T06:36:55;94311.81;;;12.98;83.59
73600;BME280;61877;48.246;9.220;2022-08-21T06:39:20;94314.97;;;13.16;83.51
73600;BME280;61877;48.246;9.220;2022-08-21T06:41:46;94311.47;;;13.31;81.77
73600;BME280;61877;48.246;9.220;2022-08-21T06:44:12;94307.03;;;13.38;80.27
73600;BME280;61877;48.246;9.220;2022-08-21T06:46:42;94306.28;;;13.38;80.97
73600;BME280;61877;48.246;9.220;2022-08-21T06:49:07;94300.59;;;13.58;80.29
73600;BME280;61877;48.246;9.220;2022-08-21T06:51:32;94297.94;;;13.77;80.43
73600;BME280;61877;48.246;9.220;2022-08-21T06:53:58;94302.16;;;13.94;81.01
73600;BME280;61877;48.246;9.220;2022-08-21T06:56:23;94300.47;;;14.05;80.94
73600;BME280;61877;48.246;9.220;2022-08-21T06:58:49;94298.00;;;14.15;79.71
73600;BME280;61877;48.246;9.220;2022-08-21T07:01:14;94300.00;;;14.38;80.58
73600;BME280;61877;48.246;9.220;2022-08-21T07:03:43;94303.81;;;14.52;80.45
73600;BME280;61877;48.246;9.220;2022-08-21T07:06:10;94290.41;;;14.59;79.84
73600;BME280;61877;48.246;9.220;2022-08-21T07:08:37;94302.00;;;14.60;80.72
73600;BME280;61877;48.246;9.220;2022-08-21T07:11:05;94292.44;;;14.85;79.71
73600;BME280;61877;48.246;9.220;2022-08-21T07:13:32;94298.22;;;15.06;78.80
73600;BME280;61877;48.246;9.220;2022-08-21T07:15:57;94292.66;;;15.18;78.75
73600;BME280;61877;48.246;9.220;2022-08-21T07:18:23;94289.91;;;15.37;79.94
73600;BME280;61877;48.246;9.220;2022-08-21T07:20:50;94296.41;;;15.55;79.54
73600;BME280;61877;48.246;9.220;2022-08-21T07:23:26;94288.69;;;15.83;79.02
73600;BME280;61877;48.246;9.220;2022-08-21T07:25:52;94288.19;;;16.04;77.56
73600;BME280;61877;48.246;9.220;2022-08-21T07:28:18;94284.38;;;16.05;76.76
73600;BME280;61877;48.246;9.220;2022-08-21T07:30:43;94284.69;;;16.29;77.02
73600;BME280;61877;48.246;9.220;2022-08-21T07:33:09;94285.34;;;16.49;76.65
73600;BME280;61877;48.246;9.220;2022-08-21T07:35:35;94277.31;;;16.56;76.45
73600;BME280;61877;48.246;9.220;2022-08-21T07:38:02;94276.78;;;16.80;76.13
73600;BME280;61877;48.246;9.220;2022-08-21T07:40:28;94280.03;;;16.93;75.49
73600;BME280;61877;48.246;9.220;2022-08-21T07:42:53;94281.06;;;17.18;74.62
73600;BME280;61877;48.246;9.220;2022-08-21T07:45:20;94281.13;;;17.28;73.48
73600;BME280;61877;48.246;9.220;2022-08-21T07:47:46;94273.19;;;17.46;74.76
73600;BME280;61877;48.246;9.220;2022-08-21T07:50:13;94272.94;;;17.65;72.80
73600;BME280;61877;48.246;9.220;2022-08-21T07:52:39;94273.53;;;17.95;73.19
73600;BME280;61877;48.246;9.220;2022-08-21T07:55:07;94278.25;;;18.05;72.64
73600;BME280;61877;48.246;9.220;2022-08-21T07:57:33;94272.59;;;18.38;73.16
73600;BME280;61877;48.246;9.220;2022-08-21T07:59:59;94276.53;;;18.48;72.16
73600;BME280;61877;48.246;9.220;2022-08-21T08:02:24;94269.22;;;18.62;71.60
73600;BME280;61877;48.246;9.220;2022-08-21T08:04:50;94271.28;;;18.93;70.33
73600;BME280;61877;48.246;9.220;2022-08-21T08:07:16;94274.81;;;19.25;71.24
73600;BME280;61877;48.246;9.220;2022-08-21T08:09:41;94274.09;;;19.39;67.94
73600;BME280;61877;48.246;9.220;2022-08-21T08:12:08;94276.41;;;19.62;59.53
73600;BME280;61877;48.246;9.220;2022-08-21T08:14:34;94268.25;;;19.72;57.68
73600;BME280;61877;48.246;9.220;2022-08-21T08:16:59;94267.47;;;19.89;54.48
73600;BME280;61877;48.246;9.220;2022-08-21T08:19:25;94266.66;;;20.17;57.81
73600;BME280;61877;48.246;9.220;2022-08-21T08:21:50;94266.25;;;20.32;55.24
73600;BME280;61877;48.246;9.220;2022-08-21T08:24:15;94263.84;;;20.45;54.84
73600;BME280;61877;48.246;9.220;2022-08-21T08:26:41;94264.09;;;20.86;54.15
73600;BME280;61877;48.246;9.220;2022-08-21T08:29:07;94257.09;;;20.78;48.03
73600;BME280;61877;48.246;9.220;2022-08-21T08:31:33;94252.44;;;20.71;50.08
73600;BME280;61877;48.246;9.220;2022-08-21T08:33:58;94256.31;;;20.81;50.98
73600;BME280;61877;48.246;9.220;2022-08-21T08:36:32;94248.44;;;20.93;49.51
73600;BME280;61877;48.246;9.220;2022-08-21T08:38:58;94251.19;;;20.86;49.13
73600;BME280;61877;48.246;9.220;2022-08-21T08:41:23;94246.72;;;21.24;46.42
73600;BME280;61877;48.246;9.220;2022-08-21T08:43:50;94248.56;;;21.37;48.55
73600;BME280;61877;48.246;9.220;2022-08-21T08:46:30;94241.22;;;21.82;49.14
73600;BME280;61877;48.246;9.220;2022-08-21T08:49:00;94242.78;;;21.76;47.02
73600;BME280;61877;48.246;9.220;2022-08-21T08:51:36;94243.91;;;21.86;47.29
73600;BME280;61877;48.246;9.220;2022-08-21T08:54:07;94244.00;;;21.79;49.10
73600;BME280;61877;48.246;9.220;2022-08-21T08:56:35;94243.25;;;22.15;50.93
73600;BME280;61877;48.246;9.220;2022-08-21T08:59:07;94243.56;;;22.58;45.21
73600;BME280;61877;48.246;9.220;2022-08-21T09:01:34;94239.94;;;22.68;44.46
73600;BME280;61877;48.246;9.220;2022-08-21T09:04:00;94240.47;;;22.86;45.47
73600;BME280;61877;48.246;9.220;2022-08-21T09:06:37;94241.25;;;22.86;43.69
73600;BME280;61877;48.246;9.220;2022-08-21T09:09:15;94241.06;;;23.00;43.00
73600;BME280;61877;48.246;9.220;2022-08-21T09:11:52;94233.97;;;23.33;44.52
73600;BME280;61877;48.246;9.220;2022-08-21T09:17:35;94236.03;;;22.95;45.05
73600;BME280;61877;48.246;9.220;2022-08-21T09:20:26;94237.25;;;22.94;44.46
73600;BME280;61877;48.246;9.220;2022-08-21T09:23:02;94237.44;;;23.07;43.55
73600;BME280;61877;48.246;9.220;2022-08-21T09:25:32;94226.56;;;23.57;42.13
73600;BME280;61877;48.246;9.220;2022-08-21T09:27:59;94227.19;;;24.34;43.18
73600;BME280;61877;48.246;9.220;2022-08-21T09:30:30;94220.13;;;24.13;38.93
73600;BME280;61877;48.246;9.220;2022-08-21T09:32:58;94222.25;;;24.45;40.49
73600;BME280;61877;48.246;9.220;2022-08-21T09:35:24;94222.75;;;23.97;39.38
73600;BME280;61877;48.246;9.220;2022-08-21T09:37:53;94222.31;;;24.21;39.37
73600;BME280;61877;48.246;9.220;2022-08-21T09:40:32;94216.00;;;24.44;37.94
73600;BME280;61877;48.246;9.220;2022-08-21T09:43:00;94213.91;;;24.71;38.83
73600;BME280;61877;48.246;9.220;2022-08-21T09:45:31;94222.25;;;24.25;37.91
73600;BME280;61877;48.246;9.220;2022-08-21T09:48:09;94215.31;;;24.40;35.02
73600;BME280;61877;48.246;9.220;2022-08-21T09:50:35;94211.25;;;24.05;40.28
73600;BME280;61877;48.246;9.220;2022-08-21T09:53:00;94212.22;;;24.38;40.04
73600;BME280;61877;48.246;9.220;2022-08-21T09:55:32;94208.34;;;24.36;35.90
73600;BME280;61877;48.246;9.220;2022-08-21T09:58:00;94212.63;;;24.76;38.42
73600;BME280;61877;48.246;9.220;2022-08-21T10:00:28;94208.16;;;25.37;39.77
73600;BME280;61877;48.246;9.220;2022-08-21T10:02:54;94202.94;;;25.42;36.63
73600;BME280;61877;48.246;9.220;2022-08-21T10:05:25;94196.59;;;25.62;33.06
73600;BME280;61877;48.246;9.220;2022-08-21T10:07:51;94203.88;;;25.52;32.65
73600;BME280;61877;48.246;9.220;2022-08-21T10:10:18;94189.16;;;25.10;33.38
73600;BME280;61877;48.246;9.220;2022-08-21T10:12:49;94190.50;;;25.54;33.85
73600;BME280;61877;48.246;9.220;2022-08-21T10:15:24;94184.97;;;25.86;34.20
73600;BME280;61877;48.246;9.220;2022-08-21T10:18:01;94193.91;;;25.90;34.10
73600;BME280;61877;48.246;9.220;2022-08-21T10:20:36;94192.66;;;26.23;33.07
73600;BME280;61877;48.246;9.220;2022-08-21T10:23:28;94190.63;;;26.40;34.76
73600;BME280;61877;48.246;9.220;2022-08-21T10:25:58;94184.41;;;26.23;32.43
73600;BME280;61877;48.246;9.220;2022-08-21T10:28:31;94189.25;;;24.87;37.67
73600;BME280;61877;48.246;9.220;2022-08-21T10:31:04;94184.09;;;24.34;38.53
73600;BME280;61877;48.246;9.220;2022-08-21T10:33:43;94182.81;;;24.39;37.70
73600;BME280;61877;48.246;9.220;2022-08-21T10:36:16;94187.66;;;23.88;42.56
73600;BME280;61877;48.246;9.220;2022-08-21T10:38:56;94178.69;;;24.31;42.60
73600;BME280;61877;48.246;9.220;2022-08-21T10:41:40;94182.53;;;25.43;36.95
73600;BME280;61877;48.246;9.220;2022-08-21T10:44:15;94178.53;;;26.66;35.03
73600;BME280;61877;48.246;9.220;2022-08-21T10:46:47;94185.09;;;27.60;33.24
73600;BME280;61877;48.246;9.220;2022-08-21T10:49:22;94182.25;;;27.51;34.88
73600;BME280;61877;48.246;9.220;2022-08-21T10:52:00;94176.50;;;27.58;33.66
73600;BME280;61877;48.246;9.220;2022-08-21T10:54:33;94179.25;;;27.70;31.49
73600;BME280;61877;48.246;9.220;2022-08-21T10:57:05;94169.56;;;27.53;32.67
73600;BME280;61877;48.246;9.220;2022-08-21T10:59:37;94171.50;;;27.78;35.09
73600;BME280;61877;48.246;9.220;2022-08-21T11:02:11;94173.06;;;27.92;34.41
73600;BME280;61877;48.246;9.220;2022-08-21T11:04:45;94178.44;;;27.95;32.02
73600;BME280;61877;48.246;9.220;2022-08-21T11:07:21;94173.72;;;27.96;31.35
73600;BME280;61877;48.246;9.220;2022-08-21T11:09:49;94166.00;;;28.89;31.77
73600;BME280;61877;48.246;9.220;2022-08-21T11:12:22;94165.72;;;29.18;31.73
73600;BME280;61877;48.246;9.220;2022-08-21T11:14:57;94163.53;;;29.53;31.51
73600;BME280;61877;48.246;9.220;2022-08-21T11:17:31;94161.63;;;29.71;32.43
73600;BME280;61877;48.246;9.220;2022-08-21T11:20:05;94164.56;;;29.77;31.89
73600;BME280;61877;48.246;9.220;2022-08-21T11:22:42;94162.38;;;29.72;29.98
73600;BME280;61877;48.246;9.220;2022-08-21T11:25:14;94158.88;;;29.71;28.16
73600;BME280;61877;48.246;9.220;2022-08-21T11:28:06;94160.66;;;28.95;30.43
73600;BME280;61877;48.246;9.220;2022-08-21T11:30:52;94161.84;;;28.63;31.29
73600;BME280;61877;48.246;9.220;2022-08-21T11:33:34;94153.84;;;29.08;32.95
73600;BME280;61877;48.246;9.220;2022-08-21T11:36:12;94160.41;;;28.80;28.34
73600;BME280;61877;48.246;9.220;2022-08-21T11:38:46;94154.78;;;28.62;28.65
73600;BME280;61877;48.246;9.220;2022-08-21T11:41:25;94151.63;;;28.73;27.93
73600;BME280;61877;48.246;9.220;2022-08-21T11:44:00;94149.13;;;29.58;32.63
73600;BME280;61877;48.246;9.220;2022-08-21T11:46:36;94149.22;;;29.94;31.23
73600;BME280;61877;48.246;9.220;2022-08-21T11:49:20;94147.81;;;29.32;30.36
73600;BME280;61877;48.246;9.220;2022-08-21T11:51:53;94140.19;;;30.29;31.48
73600;BME280;61877;48.246;9.220;2022-08-21T11:54:28;94147.44;;;29.12;28.68
73600;BME280;61877;48.246;9.220;2022-08-21T11:57:01;94143.22;;;29.47;31.13
73600;BME280;61877;48.246;9.220;2022-08-21T11:59:34;94139.69;;;30.13;30.29
73600;BME280;61877;48.246;9.220;2022-08-21T12:02:00;94135.88;;;30.19;28.38
73600;BME280;61877;48.246;9.220;2022-08-21T12:04:29;94137.09;;;30.18;27.50
73600;BME280;61877;48.246;9.220;2022-08-21T12:06:56;94139.66;;;30.94;27.09
73600;BME280;61877;48.246;9.220;2022-08-21T12:09:34;94133.84;;;30.74;24.77
73600;BME280;61877;48.246;9.220;2022-08-21T12:12:04;94137.91;;;31.06;24.00
73600;BME280;61877;48.246;9.220;2022-08-21T12:14:37;94138.50;;;30.50;27.33
73600;BME280;61877;48.246;9.220;2022-08-21T12:17:05;94129.72;;;29.97;28.95
73600;BME280;61877;48.246;9.220;2022-08-21T12:19:31;94128.38;;;30.29;30.56
73600;BME280;61877;48.246;9.220;2022-08-21T12:21:59;94131.03;;;29.66;28.49
73600;BME280;61877;48.246;9.220;2022-08-21T12:24:39;94141.97;;;29.69;29.66
73600;BME280;61877;48.246;9.220;2022-08-21T12:27:26;94132.63;;;30.48;26.66
73600;BME280;61877;48.246;9.220;2022-08-21T12:29:54;94127.28;;;30.36;27.68
73600;BME280;61877;48.246;9.220;2022-08-21T12:32:25;94129.19;;;29.72;27.99
73600;BME280;61877;48.246;9.220;2022-08-21T12:34:53;94128.06;;;30.36;30.78
73600;BME280;61877;48.246;9.220;2022-08-21T12:37:24;94128.63;;;30.04;26.86
73600;BME280;61877;48.246;9.220;2022-08-21T12:39:57;94127.91;;;29.55;30.39
73600;BME280;61877;48.246;9.220;2022-08-21T12:42:30;94120.00;;;29.84;29.48
73600;BME280;61877;48.246;9.220;2022-08-21T12:45:02;94118.47;;;29.92;30.02
73600;BME280;61877;48.246;9.220;2022-08-21T12:47:32;94114.97;;;30.37;27.43
73600;BME280;61877;48.246;9.220;2022-08-21T12:50:02;94122.66;;;30.14;26.64
73600;BME280;61877;48.246;9.220;2022-08-21T12:52:33;94118.38;;;29.56;28.25
73600;BME280;61877;48.246;9.220;2022-08-21T12:55:01;94120.38;;;29.55;26.65
73600;BME280;61877;48.246;9.220;2022-08-21T12:57:28;94119.13;;;30.41;28.89
73600;BME280;61877;48.246;9.220;2022-08-21T12:59:56;94113.56;;;29.78;27.62
73600;BME280;61877;48.246;9.220;2022-08-21T13:02:24;94113.59;;;29.47;28.19
73600;BME280;61877;48.246;9.220;2022-08-21T13:04:51;94115.25;;;30.20;27.98
73600;BME280;61877;48.246;9.220;2022-08-21T13:07:24;94114.97;;;29.91;26.35
73600;BME280;61877;48.246;9.220;2022-08-21T13:09:52;94117.84;;;29.70;27.03